sensor_id;sensor_type;location;lat;lon;timestamp;P1;durP1;ratioP1;P2;durP2;ratioP2
9208;SDS011;4639;48.862;9.188;2023-04-08T00:01:14;12.45;;;11.25;;
9208;SDS011;4639;48.862;9.188;2023-04-08T00:03:40;12.02;;;10.82;;
9208;SDS011;4639;48.862;9.188;2023-04-08T00:06:06;12.48;;;10.95;;
9208;SDS011;4639;48.862;9.188;2023-04-08T00:08:32;14.70;;;11.80;;
9208;SDS011;4639;48.862;9.188;2023-04-08T00:10:57;13.00;;;11.70;;
9208;SDS011;4639;48.862;9.188;2023-04-08T00:13:23;13.20;;;11.85;;
9208;SDS011;4639;48.862;9.188;2023-04-08T00:15:50;12.38;;;11.07;;
9208;SDS011;4639;48.862;9.188;2023-04-08T00:18:16;13.05;;;11.75;;
9208;SDS011;4639;48.862;9.188;2023-04-08T00:20:42;12.48;;;11.27;;
9208;SDS011;4639;48.862;9.188;2023-04-08T00:23:07;13.27;;;11.82;;
9208;SDS011;4639;48.862;9.188;2023-04-08T00:25:33;13.25;;;11.85;;
9208;SDS011;4639;48.862;9.188;2023-04-08T00:28:05;12.05;;;10.85;;
9208;SDS011;4639;48.862;9.188;2023-04-08T00:30:33;13.27;;;11.88;;
9208;SDS011;4639;48.862;9.188;2023-04-08T00:32:58;13.85;;;12.10;;
9208;SDS011;4639;48.862;9.188;2023-04-08T00:35:24;14.60;;;13.02;;
9208;SDS011;4639;48.862;9.188;2023-04-08T00:37:50;13.65;;;11.82;;
9208;SDS011;4639;48.862;9.188;2023-04-08T00:40:16;14.90;;;12.65;;
9208;SDS011;4639;48.862;9.188;2023-04-08T00:42:41;13.27;;;11.93;;
9208;SDS011;4639;48.862;9.188;2023-04-08T00:45:07;13.90;;;12.55;;
9208;SDS011;4639;48.862;9.188;2023-04-08T00:47:34;14.85;;;13.32;;
9208;SDS011;4639;48.862;9.188;2023-04-08T00:50:00;14.25;;;12.77;;
9208;SDS011;4639;48.862;9.188;2023-04-08T00:52:26;13.07;;;11.77;;
9208;SDS011;4639;48.862;9.188;2023-04-08T00:54:51;13.70;;;12.00;;
9208;SDS011;4639;48.862;9.188;2023-04-08T00:57:17;13.32;;;11.98;;
9208;SDS011;4639;48.862;9.188;2023-04-08T00:59:43;13.23;;;11.93;;
9208;SDS011;4639;48.862;9.188;2023-04-08T01:02:11;14.05;;;12.07;;
9208;SDS011;4639;48.862;9.188;2023-04-08T01:08:13;13.68;;;11.40;;
9208;SDS011;4639;48.862;9.188;2023-04-08T01:10:43;12.45;;;11.10;;
9208;SDS011;4639;48.862;9.188;2023-04-08T01:13:12;13.55;;;12.00;;
9208;SDS011;4639;48.862;9.188;2023-04-08T01:15:40;13.60;;;12.20;;
9208;SDS011;4639;48.862;9.188;2023-04-08T01:18:12;13.63;;;11.73;;
9208;SDS011;4639;48.862;9.188;2023-04-08T01:20:40;13.15;;;11.88;;
9208;SDS011;4639;48.862;9.188;2023-04-08T01:23:16;12.85;;;11.55;;
9208;SDS011;4639;48.862;9.188;2023-04-08T01:26:03;14.52;;;11.90;;
9208;SDS011;4639;48.862;9.188;2023-04-08T01:28:29;13.85;;;12.45;;
9208;SDS011;4639;48.862;9.188;2023-04-08T01:30:58;14.18;;;12.45;;
9208;SDS011;4639;48.862;9.188;2023-04-08T01:33:26;13.68;;;12.38;;
9208;SDS011;4639;48.862;9.188;2023-04-08T01:35:52;13.52;;;12.23;;
9208;SDS011;4639;48.862;9.188;2023-04-08T01:38:23;13.65;;;12.27;;
9208;SDS011;4639;48.862;9.188;2023-04-08T01:40:53;14.25;;;12.80;;
9208;SDS011;4639;48.862;9.188;2023-04-08T01:43:20;13.52;;;12.23;;
9208;SDS011;4639;48.862;9.188;2023-04-08T01:45:46;14.82;;;13.35;;
9208;SDS011;4639;48.862;9.188;2023-04-08T01:48:13;15.15;;;13.55;;
9208;SDS011;4639;48.862;9.188;2023-04-08T01:50:40;14.38;;;12.88;;
9208;SDS011;4639;48.862;9.188;2023-04-08T01:53:08;14.38;;;12.98;;
9208;SDS011;4639;48.862;9.188;2023-04-08T01:55:38;15.48;;;13.93;;
9208;SDS011;4639;48.862;9.188;2023-04-08T01:58:06;16.80;;;14.90;;
9208;SDS011;4639;48.862;9.188;2023-04-08T02:00:35;15.13;;;13.60;;
9208;SDS011;4639;48.862;9.188;2023-04-08T02:03:07;15.82;;;14.23;;
9208;SDS011;4639;48.862;9.188;2023-04-08T02:05:36;15.10;;;13.60;;
9208;SDS011;4639;48.862;9.188;2023-04-08T02:08:01;18.65;;;14.35;;
9208;SDS011;4639;48.862;9.188;2023-04-08T02:10:27;16.20;;;14.55;;
9208;SDS011;4639;48.862;9.188;2023-04-08T02:12:53;16.52;;;14.70;;
9208;SDS011;4639;48.862;9.188;2023-04-08T02:15:18;19.95;;;14.85;;
9208;SDS011;4639;48.862;9.188;2023-04-08T02:17:45;16.05;;;14.35;;
9208;SDS011;4639;48.862;9.188;2023-04-08T02:20:16;17.63;;;14.48;;
9208;SDS011;4639;48.862;9.188;2023-04-08T02:25:33;18.25;;;15.30;;
9208;SDS011;4639;48.862;9.188;2023-04-08T02:28:05;16.77;;;14.70;;
9208;SDS011;4639;48.862;9.188;2023-04-08T02:30:34;18.67;;;15.82;;
9208;SDS011;4639;48.862;9.188;2023-04-08T02:33:02;16.88;;;15.02;;
9208;SDS011;4639;48.862;9.188;2023-04-08T02:35:29;16.95;;;14.95;;
9208;SDS011;4639;48.862;9.188;2023-04-08T02:37:55;16.25;;;14.32;;
9208;SDS011;4639;48.862;9.188;2023-04-08T02:40:30;17.80;;;14.23;;
9208;SDS011;4639;48.862;9.188;2023-04-08T02:42:57;15.70;;;14.10;;
9208;SDS011;4639;48.862;9.188;2023-04-08T02:45:27;17.08;;;14.30;;
9208;SDS011;4639;48.862;9.188;2023-04-08T02:47:56;17.40;;;14.57;;
9208;SDS011;4639;48.862;9.188;2023-04-08T02:50:23;19.23;;;15.43;;
9208;SDS011;4639;48.862;9.188;2023-04-08T02:52:48;16.70;;;15.00;;
9208;SDS011;4639;48.862;9.188;2023-04-08T02:55:17;16.65;;;14.57;;
9208;SDS011;4639;48.862;9.188;2023-04-08T02:57:45;17.63;;;15.73;;
9208;SDS011;4639;48.862;9.188;2023-04-08T03:00:11;20.02;;;16.70;;
9208;SDS011;4639;48.862;9.188;2023-04-08T03:02:37;20.75;;;17.35;;
9208;SDS011;4639;48.862;9.188;2023-04-08T03:05:03;24.45;;;17.58;;
9208;SDS011;4639;48.862;9.188;2023-04-08T03:07:29;21.70;;;17.33;;
9208;SDS011;4639;48.862;9.188;2023-04-08T03:09:55;24.65;;;17.52;;
9208;SDS011;4639;48.862;9.188;2023-04-08T03:12:24;25.77;;;18.77;;
9208;SDS011;4639;48.862;9.188;2023-04-08T03:14:55;26.35;;;18.10;;
9208;SDS011;4639;48.862;9.188;2023-04-08T03:17:21;24.70;;;18.77;;
9208;SDS011;4639;48.862;9.188;2023-04-08T03:19:47;25.75;;;18.92;;
9208;SDS011;4639;48.862;9.188;2023-04-08T03:22:12;24.60;;;19.08;;
9208;SDS011;4639;48.862;9.188;2023-04-08T03:24:38;24.42;;;18.90;;
9208;SDS011;4639;48.862;9.188;2023-04-08T03:27:04;25.88;;;19.20;;
9208;SDS011;4639;48.862;9.188;2023-04-08T03:29:30;23.17;;;17.85;;
9208;SDS011;4639;48.862;9.188;2023-04-08T03:31:56;25.75;;;18.67;;
9208;SDS011;4639;48.862;9.188;2023-04-08T03:34:21;22.60;;;18.05;;
9208;SDS011;4639;48.862;9.188;2023-04-08T03:36:47;27.30;;;19.70;;
9208;SDS011;4639;48.862;9.188;2023-04-08T03:39:12;26.02;;;19.30;;
9208;SDS011;4639;48.862;9.188;2023-04-08T03:41:38;22.90;;;17.73;;
9208;SDS011;4639;48.862;9.188;2023-04-08T03:44:03;28.80;;;19.23;;
9208;SDS011;4639;48.862;9.188;2023-04-08T03:46:29;25.77;;;18.75;;
9208;SDS011;4639;48.862;9.188;2023-04-08T03:48:54;27.50;;;19.00;;
9208;SDS011;4639;48.862;9.188;2023-04-08T03:51:20;25.13;;;18.85;;
9208;SDS011;4639;48.862;9.188;2023-04-08T03:53:46;27.38;;;19.60;;
9208;SDS011;4639;48.862;9.188;2023-04-08T03:56:13;28.80;;;19.65;;
9208;SDS011;4639;48.862;9.188;2023-04-08T03:58:39;25.58;;;18.27;;
9208;SDS011;4639;48.862;9.188;2023-04-08T04:01:05;26.92;;;18.60;;
9208;SDS011;4639;48.862;9.188;2023-04-08T04:03:30;27.73;;;19.77;;
9208;SDS011;4639;48.862;9.188;2023-04-08T04:05:56;27.25;;;20.02;;
9208;SDS011;4639;48.862;9.188;2023-04-08T04:08:21;27.67;;;19.63;;
9208;SDS011;4639;48.862;9.188;2023-04-08T04:10:47;26.60;;;19.35;;
9208;SDS011;4639;48.862;9.188;2023-04-08T04:13:12;27.83;;;20.33;;
9208;SDS011;4639;48.862;9.188;2023-04-08T04:15:38;29.38;;;19.50;;
9208;SDS011;4639;48.862;9.188;2023-04-08T04:18:05;29.05;;;21.10;;
9208;SDS011;4639;48.862;9.188;2023-04-08T04:20:31;28.20;;;20.75;;
9208;SDS011;4639;48.862;9.188;2023-04-08T04:22:57;32.38;;;21.67;;
9208;SDS011;4639;48.862;9.188;2023-04-08T04:25:23;29.02;;;20.92;;
9208;SDS011;4639;48.862;9.188;2023-04-08T04:27:49;30.00;;;20.55;;
9208;SDS011;4639;48.862;9.188;2023-04-08T04:30:14;30.30;;;21.08;;
9208;SDS011;4639;48.862;9.188;2023-04-08T04:32:43;29.48;;;19.52;;
9208;SDS011;4639;48.862;9.188;2023-04-08T04:35:09;30.20;;;20.75;;
9208;SDS011;4639;48.862;9.188;2023-04-08T04:37:34;30.30;;;21.40;;
9208;SDS011;4639;48.862;9.188;2023-04-08T04:40:00;28.88;;;19.48;;
9208;SDS011;4639;48.862;9.188;2023-04-08T04:42:26;31.73;;;20.85;;
9208;SDS011;4639;48.862;9.188;2023-04-08T04:44:52;31.08;;;20.63;;
9208;SDS011;4639;48.862;9.188;2023-04-08T04:47:18;28.95;;;21.05;;
9208;SDS011;4639;48.862;9.188;2023-04-08T04:49:44;31.70;;;21.88;;
9208;SDS011;4639;48.862;9.188;2023-04-08T04:52:10;32.35;;;22.60;;
9208;SDS011;4639;48.862;9.188;2023-04-08T04:54:35;32.35;;;22.08;;
9208;SDS011;4639;48.862;9.188;2023-04-08T04:57:01;29.85;;;22.05;;
9208;SDS011;4639;48.862;9.188;2023-04-08T04:59:26;29.02;;;21.10;;
9208;SDS011;4639;48.862;9.188;2023-04-08T05:01:52;32.13;;;22.02;;
9208;SDS011;4639;48.862;9.188;2023-04-08T05:04:18;33.00;;;23.50;;
9208;SDS011;4639;48.862;9.188;2023-04-08T05:06:43;31.92;;;22.02;;
9208;SDS011;4639;48.862;9.188;2023-04-08T05:09:09;32.92;;;22.30;;
9208;SDS011;4639;48.862;9.188;2023-04-08T05:11:35;35.47;;;23.13;;
9208;SDS011;4639;48.862;9.188;2023-04-08T05:14:00;35.40;;;23.77;;
9208;SDS011;4639;48.862;9.188;2023-04-08T05:16:26;32.63;;;23.30;;
9208;SDS011;4639;48.862;9.188;2023-04-08T05:18:51;32.10;;;23.58;;
9208;SDS011;4639;48.862;9.188;2023-04-08T05:21:17;36.92;;;23.35;;
9208;SDS011;4639;48.862;9.188;2023-04-08T05:23:45;33.10;;;22.55;;
9208;SDS011;4639;48.862;9.188;2023-04-08T05:26:11;31.67;;;22.92;;
9208;SDS011;4639;48.862;9.188;2023-04-08T05:28:36;31.00;;;22.05;;
9208;SDS011;4639;48.862;9.188;2023-04-08T05:31:02;34.65;;;23.30;;
9208;SDS011;4639;48.862;9.188;2023-04-08T05:33:27;29.58;;;22.30;;
9208;SDS011;4639;48.862;9.188;2023-04-08T05:35:53;30.90;;;22.00;;
9208;SDS011;4639;48.862;9.188;2023-04-08T05:38:21;32.85;;;23.27;;
9208;SDS011;4639;48.862;9.188;2023-04-08T05:40:47;51.20;;;34.67;;
9208;SDS011;4639;48.862;9.188;2023-04-08T05:43:12;37.85;;;27.33;;
9208;SDS011;4639;48.862;9.188;2023-04-08T05:45:38;34.00;;;23.48;;
9208;SDS011;4639;48.862;9.188;2023-04-08T05:48:04;36.83;;;24.50;;
9208;SDS011;4639;48.862;9.188;2023-04-08T05:50:29;32.95;;;23.40;;
9208;SDS011;4639;48.862;9.188;2023-04-08T05:52:55;31.58;;;23.95;;
9208;SDS011;4639;48.862;9.188;2023-04-08T05:55:20;33.20;;;22.25;;
9208;SDS011;4639;48.862;9.188;2023-04-08T05:57:46;34.72;;;22.90;;
9208;SDS011;4639;48.862;9.188;2023-04-08T06:00:12;38.47;;;23.52;;
9208;SDS011;4639;48.862;9.188;2023-04-08T06:02:37;32.83;;;22.92;;
9208;SDS011;4639;48.862;9.188;2023-04-08T06:05:06;32.20;;;23.00;;
9208;SDS011;4639;48.862;9.188;2023-04-08T06:07:33;30.15;;;22.63;;
9208;SDS011;4639;48.862;9.188;2023-04-08T06:09:58;29.70;;;22.95;;
9208;SDS011;4639;48.862;9.188;2023-04-08T06:12:24;33.88;;;23.48;;
9208;SDS011;4639;48.862;9.188;2023-04-08T06:14:56;33.25;;;24.30;;
9208;SDS011;4639;48.862;9.188;2023-04-08T06:17:21;31.00;;;24.48;;
9208;SDS011;4639;48.862;9.188;2023-04-08T06:19:47;28.67;;;23.42;;
9208;SDS011;4639;48.862;9.188;2023-04-08T06:22:13;28.38;;;22.45;;
9208;SDS011;4639;48.862;9.188;2023-04-08T06:24:38;29.63;;;22.52;;
9208;SDS011;4639;48.862;9.188;2023-04-08T06:27:04;27.70;;;22.48;;
9208;SDS011;4639;48.862;9.188;2023-04-08T06:29:30;29.88;;;22.40;;
9208;SDS011;4639;48.862;9.188;2023-04-08T06:31:57;30.98;;;23.15;;
9208;SDS011;4639;48.862;9.188;2023-04-08T06:34:23;30.92;;;22.20;;
9208;SDS011;4639;48.862;9.188;2023-04-08T06:36:48;27.40;;;22.70;;
9208;SDS011;4639;48.862;9.188;2023-04-08T06:39:14;27.50;;;22.23;;
9208;SDS011;4639;48.862;9.188;2023-04-08T06:41:41;30.10;;;23.02;;
9208;SDS011;4639;48.862;9.188;2023-04-08T06:44:07;25.63;;;21.30;;
9208;SDS011;4639;48.862;9.188;2023-04-08T06:46:33;28.13;;;21.15;;
9208;SDS011;4639;48.862;9.188;2023-04-08T06:48:58;28.33;;;19.98;;
9208;SDS011;4639;48.862;9.188;2023-04-08T06:51:24;26.90;;;21.35;;
9208;SDS011;4639;48.862;9.188;2023-04-08T06:53:51;24.83;;;20.20;;
9208;SDS011;4639;48.862;9.188;2023-04-08T06:56:17;23.48;;;19.13;;
9208;SDS011;4639;48.862;9.188;2023-04-08T06:58:42;23.27;;;18.98;;
9208;SDS011;4639;48.862;9.188;2023-04-08T07:01:08;22.50;;;19.60;;
9208;SDS011;4639;48.862;9.188;2023-04-08T07:03:33;24.33;;;19.58;;
9208;SDS011;4639;48.862;9.188;2023-04-08T07:05:59;27.02;;;20.15;;
9208;SDS011;4639;48.862;9.188;2023-04-08T07:08:25;24.15;;;19.63;;
9208;SDS011;4639;48.862;9.188;2023-04-08T07:10:51;23.38;;;19.67;;
9208;SDS011;4639;48.862;9.188;2023-04-08T07:13:17;26.75;;;20.13;;
9208;SDS011;4639;48.862;9.188;2023-04-08T07:15:43;22.45;;;18.38;;
9208;SDS011;4639;48.862;9.188;2023-04-08T07:18:09;21.05;;;17.25;;
9208;SDS011;4639;48.862;9.188;2023-04-08T07:20:36;19.02;;;15.65;;
9208;SDS011;4639;48.862;9.188;2023-04-08T07:23:02;17.95;;;15.90;;
9208;SDS011;4639;48.862;9.188;2023-04-08T07:25:28;18.27;;;15.43;;
9208;SDS011;4639;48.862;9.188;2023-04-08T07:27:54;17.65;;;15.27;;
9208;SDS011;4639;48.862;9.188;2023-04-08T07:30:20;16.63;;;14.57;;
9208;SDS011;4639;48.862;9.188;2023-04-08T07:32:46;16.42;;;14.73;;
9208;SDS011;4639;48.862;9.188;2023-04-08T07:35:11;17.08;;;14.80;;
9208;SDS011;4639;48.862;9.188;2023-04-08T07:37:37;17.58;;;15.68;;
9208;SDS011;4639;48.862;9.188;2023-04-08T07:40:02;16.80;;;13.82;;
9208;SDS011;4639;48.862;9.188;2023-04-08T07:42:28;15.35;;;13.68;;
9208;SDS011;4639;48.862;9.188;2023-04-08T07:44:54;16.77;;;14.73;;
9208;SDS011;4639;48.862;9.188;2023-04-08T07:47:20;14.80;;;13.20;;
9208;SDS011;4639;48.862;9.188;2023-04-08T07:49:45;15.32;;;13.73;;
9208;SDS011;4639;48.862;9.188;2023-04-08T07:52:12;16.02;;;13.85;;
9208;SDS011;4639;48.862;9.188;2023-04-08T07:54:37;14.95;;;13.45;;
9208;SDS011;4639;48.862;9.188;2023-04-08T07:57:03;16.23;;;14.60;;
9208;SDS011;4639;48.862;9.188;2023-04-08T07:59:28;15.40;;;12.77;;
9208;SDS011;4639;48.862;9.188;2023-04-08T08:01:59;14.70;;;13.15;;
9208;SDS011;4639;48.862;9.188;2023-04-08T08:04:27;14.02;;;12.52;;
9208;SDS011;4639;48.862;9.188;2023-04-08T08:06:53;15.05;;;13.55;;
9208;SDS011;4639;48.862;9.188;2023-04-08T08:09:19;14.55;;;11.88;;
9208;SDS011;4639;48.862;9.188;2023-04-08T08:11:44;14.55;;;13.10;;
9208;SDS011;4639;48.862;9.188;2023-04-08T08:14:10;14.73;;;12.73;;
9208;SDS011;4639;48.862;9.188;2023-04-08T08:16:37;13.88;;;12.43;;
9208;SDS011;4639;48.862;9.188;2023-04-08T08:19:03;13.07;;;11.68;;
9208;SDS011;4639;48.862;9.188;2023-04-08T08:21:31;15.45;;;12.32;;
9208;SDS011;4639;48.862;9.188;2023-04-08T08:23:57;13.85;;;12.45;;
9208;SDS011;4639;48.862;9.188;2023-04-08T08:26:23;14.63;;;12.70;;
9208;SDS011;4639;48.862;9.188;2023-04-08T08:28:49;14.27;;;12.15;;
9208;SDS011;4639;48.862;9.188;2023-04-08T08:31:15;13.55;;;12.15;;
9208;SDS011;4639;48.862;9.188;2023-04-08T08:33:40;12.95;;;11.57;;
9208;SDS011;4639;48.862;9.188;2023-04-08T08:36:06;12.00;;;10.80;;
9208;SDS011;4639;48.862;9.188;2023-04-08T08:38:32;12.90;;;11.60;;
9208;SDS011;4639;48.862;9.188;2023-04-08T08:40:58;18.10;;;11.70;;
9208;SDS011;4639;48.862;9.188;2023-04-08T08:43:25;13.30;;;11.90;;
9208;SDS011;4639;48.862;9.188;2023-04-08T08:45:51;16.85;;;14.15;;
9208;SDS011;4639;48.862;9.188;2023-04-08T08:48:20;13.35;;;11.35;;
9208;SDS011;4639;48.862;9.188;2023-04-08T08:50:45;12.07;;;10.73;;
9208;SDS011;4639;48.862;9.188;2023-04-08T08:53:11;12.93;;;11.63;;
9208;SDS011;4639;48.862;9.188;2023-04-08T08:55:37;12.40;;;11.10;;
9208;SDS011;4639;48.862;9.188;2023-04-08T08:58:03;12.45;;;11.25;;
9208;SDS011;4639;48.862;9.188;2023-04-08T09:00:32;13.57;;;11.73;;
9208;SDS011;4639;48.862;9.188;2023-04-08T09:03:12;12.07;;;10.88;;
9208;SDS011;4639;48.862;9.188;2023-04-08T09:05:52;12.85;;;11.50;;
9208;SDS011;4639;48.862;9.188;2023-04-08T09:13:44;12.63;;;10.95;;
9208;SDS011;4639;48.862;9.188;2023-04-08T09:16:14;12.30;;;11.10;;
9208;SDS011;4639;48.862;9.188;2023-04-08T09:18:42;13.57;;;11.52;;
9208;SDS011;4639;48.862;9.188;2023-04-08T09:21:14;12.65;;;11.38;;
9208;SDS011;4639;48.862;9.188;2023-04-08T09:26:08;11.35;;;10.27;;
9208;SDS011;4639;48.862;9.188;2023-04-08T09:28:35;12.80;;;11.15;;
9208;SDS011;4639;48.862;9.188;2023-04-08T09:31:20;11.98;;;10.85;;
9208;SDS011;4639;48.862;9.188;2023-04-08T09:33:48;11.40;;;10.27;;
9208;SDS011;4639;48.862;9.188;2023-04-08T09:36:15;12.13;;;10.82;;
9208;SDS011;4639;48.862;9.188;2023-04-08T09:38:41;12.50;;;11.30;;
9208;SDS011;4639;48.862;9.188;2023-04-08T09:41:07;12.50;;;11.30;;
9208;SDS011;4639;48.862;9.188;2023-04-08T09:43:40;11.27;;;10.18;;
9208;SDS011;4639;48.862;9.188;2023-04-08T09:46:09;12.52;;;11.23;;
9208;SDS011;4639;48.862;9.188;2023-04-08T09:48:38;11.68;;;10.48;;
9208;SDS011;4639;48.862;9.188;2023-04-08T09:51:06;13.90;;;11.13;;
9208;SDS011;4639;48.862;9.188;2023-04-08T09:53:37;12.10;;;10.88;;
9208;SDS011;4639;48.862;9.188;2023-04-08T09:56:09;12.65;;;11.35;;
9208;SDS011;4639;48.862;9.188;2023-04-08T09:58:51;12.30;;;10.57;;
9208;SDS011;4639;48.862;9.188;2023-04-08T10:01:23;11.90;;;10.60;;
9208;SDS011;4639;48.862;9.188;2023-04-08T10:03:54;11.00;;;9.82;;
9208;SDS011;4639;48.862;9.188;2023-04-08T10:06:21;11.07;;;9.35;;
9208;SDS011;4639;48.862;9.188;2023-04-08T10:08:52;11.88;;;10.05;;
9208;SDS011;4639;48.862;9.188;2023-04-08T10:11:19;10.77;;;9.60;;
9208;SDS011;4639;48.862;9.188;2023-04-08T10:13:45;11.57;;;9.93;;
9208;SDS011;4639;48.862;9.188;2023-04-08T10:18:43;12.40;;;8.98;;
9208;SDS011;4639;48.862;9.188;2023-04-08T10:24:10;10.40;;;9.40;;
9208;SDS011;4639;48.862;9.188;2023-04-08T10:26:42;11.15;;;10.05;;
9208;SDS011;4639;48.862;9.188;2023-04-08T10:31:50;15.98;;;9.60;;
9208;SDS011;4639;48.862;9.188;2023-04-08T10:36:45;12.05;;;10.23;;
9208;SDS011;4639;48.862;9.188;2023-04-08T10:39:12;11.27;;;10.07;;
9208;SDS011;4639;48.862;9.188;2023-04-08T10:41:42;10.82;;;9.73;;
9208;SDS011;4639;48.862;9.188;2023-04-08T10:46:44;12.80;;;10.05;;
9208;SDS011;4639;48.862;9.188;2023-04-08T10:49:11;11.15;;;9.52;;
9208;SDS011;4639;48.862;9.188;2023-04-08T10:51:41;11.13;;;9.90;;
9208;SDS011;4639;48.862;9.188;2023-04-08T10:54:08;10.38;;;9.30;;
9208;SDS011;4639;48.862;9.188;2023-04-08T10:56:35;10.88;;;9.77;;
9208;SDS011;4639;48.862;9.188;2023-04-08T10:59:08;10.05;;;9.00;;
9208;SDS011;4639;48.862;9.188;2023-04-08T11:01:38;10.90;;;9.80;;
9208;SDS011;4639;48.862;9.188;2023-04-08T11:04:14;11.13;;;10.02;;
9208;SDS011;4639;48.862;9.188;2023-04-08T11:06:42;10.77;;;9.60;;
9208;SDS011;4639;48.862;9.188;2023-04-08T11:09:10;11.07;;;10.00;;
9208;SDS011;4639;48.862;9.188;2023-04-08T11:11:36;11.88;;;10.02;;
9208;SDS011;4639;48.862;9.188;2023-04-08T11:14:02;11.45;;;10.00;;
9208;SDS011;4639;48.862;9.188;2023-04-08T11:16:29;10.75;;;9.63;;
9208;SDS011;4639;48.862;9.188;2023-04-08T11:18:54;10.40;;;9.40;;
9208;SDS011;4639;48.862;9.188;2023-04-08T11:21:23;11.48;;;9.40;;
9208;SDS011;4639;48.862;9.188;2023-04-08T11:23:53;10.35;;;9.25;;
9208;SDS011;4639;48.862;9.188;2023-04-08T11:26:19;10.75;;;9.43;;
9208;SDS011;4639;48.862;9.188;2023-04-08T11:28:45;10.75;;;9.25;;
9208;SDS011;4639;48.862;9.188;2023-04-08T11:31:14;10.23;;;9.23;;
9208;SDS011;4639;48.862;9.188;2023-04-08T11:33:47;10.52;;;9.43;;
9208;SDS011;4639;48.862;9.188;2023-04-08T11:36:13;9.65;;;8.73;;
9208;SDS011;4639;48.862;9.188;2023-04-08T11:38:41;10.32;;;9.27;;
9208;SDS011;4639;48.862;9.188;2023-04-08T11:41:06;9.55;;;8.55;;
9208;SDS011;4639;48.862;9.188;2023-04-08T11:43:32;9.70;;;8.45;;
9208;SDS011;4639;48.862;9.188;2023-04-08T11:46:00;10.05;;;8.73;;
9208;SDS011;4639;48.862;9.188;2023-04-08T11:48:33;10.35;;;9.18;;
9208;SDS011;4639;48.862;9.188;2023-04-08T11:51:02;10.40;;;8.07;;
9208;SDS011;4639;48.862;9.188;2023-04-08T11:53:34;10.55;;;8.60;;
9208;SDS011;4639;48.862;9.188;2023-04-08T11:56:15;11.30;;;8.38;;
9208;SDS011;4639;48.862;9.188;2023-04-08T11:58:41;9.88;;;8.88;;
9208;SDS011;4639;48.862;9.188;2023-04-08T12:01:06;9.50;;;8.60;;
9208;SDS011;4639;48.862;9.188;2023-04-08T12:03:35;9.80;;;8.80;;
9208;SDS011;4639;48.862;9.188;2023-04-08T12:06:01;9.38;;;8.48;;
9208;SDS011;4639;48.862;9.188;2023-04-08T12:08:26;10.13;;;8.80;;
9208;SDS011;4639;48.862;9.188;2023-04-08T12:10:52;9.95;;;8.95;;
9208;SDS011;4639;48.862;9.188;2023-04-08T12:13:18;9.18;;;8.27;;
9208;SDS011;4639;48.862;9.188;2023-04-08T12:15:43;9.15;;;8.25;;
9208;SDS011;4639;48.862;9.188;2023-04-08T12:18:09;11.18;;;8.38;;
9208;SDS011;4639;48.862;9.188;2023-04-08T12:20:34;10.45;;;8.05;;
9208;SDS011;4639;48.862;9.188;2023-04-08T12:23:00;9.77;;;8.55;;
9208;SDS011;4639;48.862;9.188;2023-04-08T12:25:26;10.55;;;9.05;;
9208;SDS011;4639;48.862;9.188;2023-04-08T12:27:52;9.77;;;8.73;;
9208;SDS011;4639;48.862;9.188;2023-04-08T12:30:17;11.25;;;8.80;;
9208;SDS011;4639;48.862;9.188;2023-04-08T12:32:43;10.65;;;8.52;;
9208;SDS011;4639;48.862;9.188;2023-04-08T12:35:10;10.90;;;8.73;;
9208;SDS011;4639;48.862;9.188;2023-04-08T12:37:35;9.88;;;8.88;;
9208;SDS011;4639;48.862;9.188;2023-04-08T12:40:01;9.57;;;8.60;;
9208;SDS011;4639;48.862;9.188;2023-04-08T12:42:27;11.13;;;8.50;;
9208;SDS011;4639;48.862;9.188;2023-04-08T12:44:52;14.07;;;8.70;;
9208;SDS011;4639;48.862;9.188;2023-04-08T12:47:18;9.23;;;8.20;;
9208;SDS011;4639;48.862;9.188;2023-04-08T12:49:44;9.35;;;8.40;;
9208;SDS011;4639;48.862;9.188;2023-04-08T12:52:09;9.27;;;8.35;;
9208;SDS011;4639;48.862;9.188;2023-04-08T12:54:35;9.57;;;8.57;;
9208;SDS011;4639;48.862;9.188;2023-04-08T12:57:00;10.88;;;8.32;;
9208;SDS011;4639;48.862;9.188;2023-04-08T12:59:26;11.70;;;8.75;;
9208;SDS011;4639;48.862;9.188;2023-04-08T13:01:52;10.20;;;8.63;;
9208;SDS011;4639;48.862;9.188;2023-04-08T13:04:18;9.65;;;8.68;;
9208;SDS011;4639;48.862;9.188;2023-04-08T13:06:43;9.30;;;7.97;;
9208;SDS011;4639;48.862;9.188;2023-04-08T13:09:09;9.60;;;8.57;;
9208;SDS011;4639;48.862;9.188;2023-04-08T13:11:35;9.40;;;8.50;;
9208;SDS011;4639;48.862;9.188;2023-04-08T13:14:01;11.25;;;8.48;;
9208;SDS011;4639;48.862;9.188;2023-04-08T13:16:27;9.52;;;8.63;;
9208;SDS011;4639;48.862;9.188;2023-04-08T13:18:52;10.68;;;8.57;;
9208;SDS011;4639;48.862;9.188;2023-04-08T13:21:18;10.02;;;8.95;;
9208;SDS011;4639;48.862;9.188;2023-04-08T13:23:43;8.95;;;7.70;;
9208;SDS011;4639;48.862;9.188;2023-04-08T13:26:10;10.13;;;8.50;;
9208;SDS011;4639;48.862;9.188;2023-04-08T13:28:36;11.07;;;7.65;;
9208;SDS011;4639;48.862;9.188;2023-04-08T13:31:02;9.88;;;8.85;;
9208;SDS011;4639;48.862;9.188;2023-04-08T13:33:27;9.02;;;8.13;;
9208;SDS011;4639;48.862;9.188;2023-04-08T13:35:53;8.98;;;8.02;;
9208;SDS011;4639;48.862;9.188;2023-04-08T13:38:18;9.27;;;8.38;;
9208;SDS011;4639;48.862;9.188;2023-04-08T13:40:44;10.20;;;9.07;;
9208;SDS011;4639;48.862;9.188;2023-04-08T13:43:10;9.80;;;8.68;;
9208;SDS011;4639;48.862;9.188;2023-04-08T13:45:35;8.95;;;8.05;;
9208;SDS011;4639;48.862;9.188;2023-04-08T13:48:01;13.52;;;8.95;;
9208;SDS011;4639;48.862;9.188;2023-04-08T13:50:26;9.15;;;8.25;;
9208;SDS011;4639;48.862;9.188;2023-04-08T13:52:52;8.93;;;8.07;;
9208;SDS011;4639;48.862;9.188;2023-04-08T13:55:17;10.00;;;8.63;;
9208;SDS011;4639;48.862;9.188;2023-04-08T13:57:43;10.70;;;8.07;;
9208;SDS011;4639;48.862;9.188;2023-04-08T14:00:09;9.02;;;8.13;;
9208;SDS011;4639;48.862;9.188;2023-04-08T14:02:35;8.55;;;7.65;;
9208;SDS011;4639;48.862;9.188;2023-04-08T14:05:01;10.63;;;8.70;;
9208;SDS011;4639;48.862;9.188;2023-04-08T14:07:26;11.68;;;8.52;;
9208;SDS011;4639;48.862;9.188;2023-04-08T14:09:52;9.25;;;8.15;;
9208;SDS011;4639;48.862;9.188;2023-04-08T14:12:17;8.98;;;8.07;;
9208;SDS011;4639;48.862;9.188;2023-04-08T14:14:43;8.50;;;7.70;;
9208;SDS011;4639;48.862;9.188;2023-04-08T14:17:08;8.38;;;7.55;;
9208;SDS011;4639;48.862;9.188;2023-04-08T14:19:34;8.65;;;7.85;;
9208;SDS011;4639;48.862;9.188;2023-04-08T14:22:00;8.75;;;7.85;;
9208;SDS011;4639;48.862;9.188;2023-04-08T14:24:26;8.85;;;7.70;;
9208;SDS011;4639;48.862;9.188;2023-04-08T14:26:51;8.27;;;7.45;;
9208;SDS011;4639;48.862;9.188;2023-04-08T14:29:17;8.48;;;7.15;;
9208;SDS011;4639;48.862;9.188;2023-04-08T14:31:42;10.52;;;9.43;;
9208;SDS011;4639;48.862;9.188;2023-04-08T14:34:08;9.02;;;7.20;;
9208;SDS011;4639;48.862;9.188;2023-04-08T14:36:33;8.60;;;7.60;;
9208;SDS011;4639;48.862;9.188;2023-04-08T14:38:59;13.13;;;11.80;;
9208;SDS011;4639;48.862;9.188;2023-04-08T14:41:24;9.65;;;7.05;;
9208;SDS011;4639;48.862;9.188;2023-04-08T14:43:51;7.15;;;6.32;;
9208;SDS011;4639;48.862;9.188;2023-04-08T14:46:17;8.05;;;6.20;;
9208;SDS011;4639;48.862;9.188;2023-04-08T14:48:52;7.05;;;6.22;;
9208;SDS011;4639;48.862;9.188;2023-04-08T14:51:18;9.30;;;7.65;;
9208;SDS011;4639;48.862;9.188;2023-04-08T14:53:43;6.75;;;6.15;;
9208;SDS011;4639;48.862;9.188;2023-04-08T14:56:09;7.43;;;5.63;;
9208;SDS011;4639;48.862;9.188;2023-04-08T14:58:35;6.90;;;6.20;;
9208;SDS011;4639;48.862;9.188;2023-04-08T15:01:00;7.53;;;5.80;;
9208;SDS011;4639;48.862;9.188;2023-04-08T15:03:26;7.75;;;6.18;;
9208;SDS011;4639;48.862;9.188;2023-04-08T15:05:52;6.97;;;5.93;;
9208;SDS011;4639;48.862;9.188;2023-04-08T15:08:19;6.28;;;5.28;;
9208;SDS011;4639;48.862;9.188;2023-04-08T15:10:45;6.57;;;5.90;;
9208;SDS011;4639;48.862;9.188;2023-04-08T15:13:10;6.28;;;5.68;;
9208;SDS011;4639;48.862;9.188;2023-04-08T15:15:36;7.10;;;5.45;;
9208;SDS011;4639;48.862;9.188;2023-04-08T15:18:01;6.45;;;4.85;;
9208;SDS011;4639;48.862;9.188;2023-04-08T15:20:27;6.07;;;5.47;;